Time;durP1;ratioP1;P1;durP2;ratioP2;P2;SDS_P1;SDS_P2;PMS_P1;PMS_P2;Temp;Humidity;BMP_temperature;BMP_pressure;BME280_temperature;BME280_humidity;BME280_pressure;Samples;Min_cycle;Max_cycle;Signal;HPM_P1;HPM_P2
2022/03/24 00:02:12;;;;;;;88.75;32.78;;;;;;;14.26;60.60;102548.88;7382561;19;20015;-79
2022/03/24 00:04:40;;;;;;;82.05;33.33;;;;;;;14.23;60.77;102546.47;7381729;19;20042;-79
2022/03/24 00:07:07;;;;;;;88.40;33.88;;;;;;;14.21;61.11;102545.78;7385939;19;20470;-79
2022/03/24 00:09:34;;;;;;;90.70;34.15;;;;;;;14.19;61.18;102543.28;7380478;19;20010;-79
2022/03/24 00:12:02;;;;;;;87.13;33.65;;;;;;;14.16;61.32;102537.41;7383059;19;20077;-80
2022/03/24 00:14:29;;;;;;;88.47;33.05;;;;;;;14.16;61.46;102538.25;7380602;19;20021;-79
2022/03/24 00:16:56;;;;;;;84.38;33.25;;;;;;;14.14;61.81;102538.38;7383930;19;20309;-79
2022/03/24 00:19:24;;;;;;;83.72;34.80;;;;;;;14.10;61.79;102536.97;7380558;19;20520;-78
2022/03/24 00:21:51;;;;;;;86.65;32.53;;;;;;;14.06;62.07;102532.09;7381495;19;20013;-79
2022/03/24 00:24:19;;;;;;;95.55;34.88;;;;;;;14.01;62.55;102535.13;7377923;19;20011;-80
2022/03/24 00:26:48;;;;;;;95.20;36.40;;;;;;;14.00;62.57;102537.91;7378442;19;20434;-78
2022/03/24 00:29:17;;;;;;;89.03;35.22;;;;;;;13.98;62.52;102538.03;7383639;19;20013;-78
2022/03/24 00:31:44;;;;;;;87.40;33.78;;;;;;;13.97;62.40;102536.34;7380678;19;20013;-78
2022/03/24 00:34:11;;;;;;;85.28;34.70;;;;;;;13.95;62.61;102532.16;7380145;19;20643;-78
2022/03/24 00:36:39;;;;;;;83.70;33.97;;;;;;;13.92;62.89;102530.63;7382722;19;20031;-79
2022/03/24 00:39:06;;;;;;;85.47;33.38;;;;;;;13.90;62.77;102529.09;7380823;19;20017;-78
2022/03/24 00:41:35;;;;;;;84.03;32.75;;;;;;;13.88;62.82;102531.84;7378017;19;20026;-78
2022/03/24 00:44:04;;;;;;;86.55;33.78;;;;;;;13.86;62.87;102531.16;7379655;19;20018;-78
2022/03/24 00:46:31;;;;;;;95.53;37.15;;;;;;;13.83;63.08;102526.13;7378175;19;20020;-78
2022/03/24 00:48:58;;;;;;;100.40;39.05;;;;;;;13.81;63.64;102524.59;7379358;19;20003;-79
2022/03/24 00:51:26;;;;;;;91.60;38.47;;;;;;;13.80;63.46;102523.75;7383366;19;20010;-78
2022/03/24 00:53:53;;;;;;;91.13;36.58;;;;;;;13.80;62.76;102526.41;7379186;19;20099;-79
2022/03/24 00:56:21;;;;;;;94.95;35.15;;;;;;;13.78;63.11;102524.84;7375883;19;20459;-79
2022/03/24 00:58:48;;;;;;;90.25;34.85;;;;;;;13.76;62.98;102521.50;7380575;19;20359;-79
2022/03/24 01:01:16;;;;;;;92.95;34.15;;;;;;;13.74;63.21;102516.34;7380246;19;20098;-79
2022/03/24 01:03:43;;;;;;;91.20;34.20;;;;;;;13.70;63.05;102517.56;7380269;19;20006;-78
2022/03/24 01:06:16;;;;;;;88.95;34.30;;;;;;;13.67;63.40;102517.81;7380083;19;20339;-79
2022/03/24 01:08:44;;;;;;;;;;;;;;;13.69;65.02;102510.59;7383940;19;20046;-78
2022/03/24 01:11:14;;;;;;;84.68;33.83;;;;;;;13.65;63.45;102512.69;7377257;19;20031;-78
2022/03/24 01:13:41;;;;;;;84.68;32.75;;;;;;;13.65;63.37;102511.84;7379780;19;20106;-79
2022/03/24 01:16:12;;;;;;;95.63;36.10;;;;;;;13.62;63.70;102507.63;7378105;19;20501;-78
2022/03/24 01:18:40;;;;;;;88.07;36.03;;;;;;;13.61;63.65;102511.25;7379520;19;20034;-79
2022/03/24 01:21:08;;;;;;;90.13;33.97;;;;;;;13.58;63.50;102500.94;7378705;19;20014;-78
2022/03/24 01:23:35;;;;;;;91.10;34.58;;;;;;;13.53;63.42;102512.88;7379570;19;20507;-79
2022/03/24 01:26:05;;;;;;;85.18;34.78;;;;;;;13.50;64.22;102511.34;7379877;19;20015;-79
2022/03/24 01:28:34;;;;;;;90.82;35.70;;;;;;;13.45;64.03;102510.03;7378044;19;20213;-77
2022/03/24 01:31:01;;;;;;;101.80;37.40;;;;;;;13.43;64.04;102511.97;7380680;19;20037;-78
2022/03/24 01:33:29;;;;;;;90.05;36.00;;;;;;;13.38;63.96;102504.44;7379815;19;20067;-78
2022/03/24 01:35:57;;;;;;;86.88;34.22;;;;;;;13.36;64.33;102506.34;7379869;19;20007;-78
2022/03/24 01:38:24;;;;;;;92.70;35.03;;;;;;;13.33;63.98;102508.44;7377284;19;20154;-78
2022/03/24 01:40:51;;;;;;;90.97;36.75;;;;;;;13.30;64.63;102509.53;7376708;19;20043;-78
2022/03/24 01:43:19;;;;;;;89.63;35.80;;;;;;;13.28;64.60;102504.38;7377206;19;20087;-79
2022/03/24 01:45:47;;;;;;;97.70;35.92;;;;;;;13.28;64.92;102507.00;7376908;19;20015;-78
2022/03/24 01:48:15;;;;;;;97.22;36.45;;;;;;;13.26;64.75;102502.81;7377461;19;20007;-78
2022/03/24 01:50:43;;;;;;;98.80;38.40;;;;;;;13.24;64.49;102496.81;7379182;19;20014;-78
2022/03/24 01:53:12;;;;;;;97.80;37.38;;;;;;;13.20;64.77;102498.06;7380787;19;20045;-77
2022/03/24 01:55:41;;;;;;;96.72;36.35;;;;;;;13.19;64.79;102496.38;7372324;19;20007;-77
2022/03/24 01:58:11;;;;;;;100.00;36.72;;;;;;;13.18;64.85;102494.69;7380059;19;20010;-78
2022/03/24 02:00:38;;;;;;;97.55;38.03;;;;;;;13.14;65.08;102490.63;7376153;19;20033;-79
2022/03/24 02:03:06;;;;;;;98.47;36.35;;;;;;;13.13;64.64;102486.31;7382280;19;20718;-79
2022/03/24 02:05:35;;;;;;;96.82;37.20;;;;;;;13.07;64.79;102490.28;7381652;19;20018;-78
2022/03/24 02:08:03;;;;;;;102.90;38.05;;;;;;;13.04;65.05;102487.91;7376317;19;20042;-78
2022/03/24 02:10:32;;;;;;;88.15;34.72;;;;;;;13.02;65.37;102491.63;7379158;19;20006;-79
2022/03/24 02:13:01;;;;;;;94.20;36.45;;;;;;;13.00;65.24;102485.63;7376844;19;20477;-79
2022/03/24 02:15:31;;;;;;;91.55;34.83;;;;;;;12.99;65.13;102489.25;7378132;19;20022;-79
2022/03/24 02:17:58;;;;;;;98.32;36.17;;;;;;;12.98;65.73;102482.28;7376394;19;20044;-78
2022/03/24 02:20:28;;;;;;;92.22;36.72;;;;;;;12.98;65.27;102485.75;7379901;19;20018;-78
2022/03/24 02:22:55;;;;;;;99.35;36.20;;;;;;;13.00;66.55;102480.34;7388782;19;20555;-78
2022/03/24 02:25:23;;;;;;;99.32;36.92;;;;;;;12.99;65.46;102470.75;7383065;19;20256;-78
2022/03/24 02:27:55;;;;;;;98.60;39.28;;;;;;;12.98;66.04;102484.91;7385481;19;20007;-78
2022/03/24 02:30:24;;;;;;;97.82;36.17;;;;;;;12.95;66.21;102479.91;7385618;19;20025;-78
2022/03/24 02:32:52;;;;;;;102.22;36.72;;;;;;;12.90;66.06;102479.44;7385383;19;20090;-79
2022/03/24 02:35:19;;;;;;;94.30;36.88;;;;;;;12.86;66.78;102471.75;7388370;19;20455;-79
2022/03/24 02:37:47;;;;;;;91.75;35.92;;;;;;;12.86;66.21;102481.47;7383827;19;20525;-79
2022/03/24 02:40:14;;;;;;;89.80;34.72;;;;;;;12.86;65.74;102471.75;7382436;19;20022;-79
2022/03/24 02:42:42;;;;;;;104.35;44.35;;;;;;;12.89;68.35;102475.13;7383524;19;20024;-79
2022/03/24 02:45:10;;;;;;;85.78;36.28;;;;;;;12.90;67.18;102476.78;7385245;19;20496;-79
2022/03/24 02:47:38;;;;;;;100.18;36.40;;;;;;;12.91;65.91;102474.00;7386720;19;20010;-79
2022/03/24 02:50:06;;;;;;;94.22;36.42;;;;;;;12.87;65.96;102477.88;7384859;19;20150;-79
2022/03/24 02:52:34;;;;;;;92.95;35.88;;;;;;;12.83;66.41;102471.16;7387806;19;20010;-79
2022/03/24 02:55:02;;;;;;;92.60;35.60;;;;;;;12.78;66.43;102476.84;7379226;19;20011;-77
2022/03/24 02:57:30;;;;;;;98.65;37.00;;;;;;;12.74;66.99;102471.94;7382184;19;20070;-78
2022/03/24 02:59:58;;;;;;;97.55;38.03;;;;;;;12.70;66.86;102473.97;7383867;19;20077;-78
2022/03/24 03:02:25;;;;;;;87.78;34.88;;;;;;;12.68;66.99;102475.06;7383560;19;20021;-78
2022/03/24 03:04:53;;;;;;;94.70;36.05;;;;;;;12.67;67.30;102468.94;7383728;19;20018;-78
2022/03/24 03:07:21;;;;;;;93.68;35.78;;;;;;;12.68;67.00;102468.00;7385913;19;20054;-78
2022/03/24 03:09:49;;;;;;;86.35;34.45;;;;;;;12.68;67.17;102472.44;7382760;19;20209;-78
2022/03/24 03:12:16;;;;;;;86.50;34.78;;;;;;;12.67;67.21;102471.59;7384573;19;20033;-78
2022/03/24 03:14:48;;;;;;;90.97;36.33;;;;;;;12.67;67.41;102465.47;7382273;19;20011;-78
2022/03/24 03:17:15;;;;;;;90.63;32.85;;;;;;;12.62;67.09;102465.84;7383727;19;20037;-78
2022/03/24 03:19:45;;;;;;;87.43;33.55;;;;;;;12.58;67.23;102467.06;7382120;19;20476;-78
2022/03/24 03:22:15;;;;;;;95.07;35.20;;;;;;;12.54;67.52;102470.94;7385167;19;20014;-78
2022/03/24 03:24:43;;;;;;;93.30;33.47;;;;;;;12.51;67.42;102465.03;7380356;19;20018;-78
2022/03/24 03:27:12;;;;;;;88.68;34.47;;;;;;;12.47;67.94;102455.69;7385150;19;20033;-78
2022/03/24 03:29:40;;;;;;;86.38;35.45;;;;;;;12.48;68.42;102465.28;7386568;19;20122;-77
2022/03/24 03:32:08;;;;;;;89.28;35.25;;;;;;;12.46;68.31;102459.28;7384162;19;20142;-78
2022/03/24 03:34:35;;;;;;;87.28;34.13;;;;;;;12.44;68.12;102457.59;7382131;19;20483;-78
2022/03/24 03:37:03;;;;;;;84.47;33.92;;;;;;;12.45;68.65;102463.72;7384023;19;20031;-78
2022/03/24 03:39:30;;;;;;;89.07;33.28;;;;;;;12.42;68.42;102474.56;7379414;19;20037;-78
2022/03/24 03:41:57;;;;;;;85.05;33.10;;;;;;;12.37;68.43;102466.16;7381871;19;20018;-78
2022/03/24 03:44:25;;;;;;;83.32;32.42;;;;;;;12.37;68.40;102472.28;7381132;19;20448;-79
2022/03/24 03:46:52;;;;;;;89.70;34.33;;;;;;;12.37;68.33;102466.16;7382756;19;20011;-78
2022/03/24 03:49:21;;;;;;;81.80;33.20;;;;;;;12.36;68.40;102464.47;7380494;19;20037;-79
2022/03/24 03:52:05;;;;;;;84.53;33.60;;;;;;;12.33;68.57;102468.22;7383885;19;20483;-79
2022/03/24 03:54:32;;;;;;;82.90;33.50;;;;;;;12.31;68.66;102477.22;7376707;19;20003;-78
2022/03/24 03:56:59;;;;;;;80.95;33.95;;;;;;;12.29;68.65;102471.22;7377781;19;20042;-78
2022/03/24 03:59:26;;;;;;;88.28;33.47;;;;;;;12.25;68.74;102470.63;7379927;19;20007;-79
2022/03/24 04:01:55;;;;;;;85.35;32.50;;;;;;;12.21;69.07;102477.09;7380026;19;20011;-78
2022/03/24 04:04:22;;;;;;;86.55;34.00;;;;;;;12.18;69.35;102474.72;7381948;19;20042;-78
2022/03/24 04:06:49;;;;;;;83.90;33.20;;;;;;;12.16;69.43;102475.78;7380150;19;20011;-79
2022/03/24 04:09:16;;;;;;;99.57;39.13;;;;;;;12.15;70.07;102474.09;7379094;19;20015;-77
2022/03/24 04:11:43;;;;;;;88.97;33.78;;;;;;;12.12;70.00;102471.72;7381352;19;20007;-79
2022/03/24 04:14:10;;;;;;;86.93;33.78;;;;;;;12.09;70.08;102482.53;7385508;19;20414;-78
2022/03/24 04:16:37;;;;;;;85.10;32.22;;;;;;;12.06;70.15;102473.06;7381212;19;20078;-79
2022/03/24 04:19:05;;;;;;;83.85;32.92;;;;;;;12.05;70.04;102481.09;7383407;19;20375;-79
2022/03/24 04:21:32;;;;;;;79.45;31.20;;;;;;;12.04;70.10;102477.59;7381565;19;20377;-78
2022/03/24 04:23:59;;;;;;;83.95;31.50;;;;;;;12.04;70.24;102471.50;7381800;19;20501;-79
2022/03/24 04:26:27;;;;;;;82.65;33.20;;;;;;;12.04;70.11;102477.59;7380414;19;20013;-79
2022/03/24 04:28:54;;;;;;;88.38;34.38;;;;;;;12.05;70.52;102478.44;7384300;19;20031;-79
2022/03/24 04:31:22;;;;;;;77.97;31.23;;;;;;;12.06;70.49;102480.13;7380064;19;20038;-78
2022/03/24 04:33:50;;;;;;;75.38;31.30;;;;;;;12.04;69.82;102480.25;7384452;19;20380;-78
2022/03/24 04:36:18;;;;;;;95.10;34.03;;;;;;;12.02;70.49;102479.53;7380692;19;20516;-78
2022/03/24 04:38:45;;;;;;;87.55;33.05;;;;;;;12.01;70.22;102475.22;7381698;19;20347;-78
2022/03/24 04:41:13;;;;;;;91.38;32.67;;;;;;;12.00;70.45;102471.75;7377453;19;20010;-79
2022/03/24 04:43:40;;;;;;;84.55;33.40;;;;;;;12.00;70.20;102471.75;7379524;19;20475;-79
2022/03/24 04:46:08;;;;;;;87.85;33.08;;;;;;;11.97;69.88;102468.50;7383967;19;20049;-77
2022/03/24 04:48:36;;;;;;;83.07;32.92;;;;;;;11.97;70.30;102466.72;7380538;19;20042;-78
2022/03/24 04:51:06;;;;;;;88.43;35.28;;;;;;;11.95;69.77;102465.13;7381555;19;20007;-78
2022/03/24 04:53:35;;;;;;;89.30;33.30;;;;;;;11.92;70.50;102466.25;7383198;19;20014;-78
2022/03/24 04:56:03;;;;;;;85.20;34.08;;;;;;;11.91;69.88;102458.44;7376665;19;20017;-79
2022/03/24 04:58:30;;;;;;;84.97;31.98;;;;;;;11.89;70.04;102462.97;7384534;19;20014;-78
2022/03/24 05:00:58;;;;;;;83.20;32.88;;;;;;;11.89;70.62;102465.63;7382892;19;20271;-78
2022/03/24 05:03:28;;;;;;;82.18;33.08;;;;;;;11.87;70.53;102468.41;7381759;19;20356;-78
2022/03/24 05:05:56;;;;;;;83.97;32.80;;;;;;;11.82;70.09;102464.44;7383096;19;20014;-77
2022/03/24 05:08:23;;;;;;;80.22;31.02;;;;;;;11.78;70.49;102470.91;7379840;19;20363;-78
2022/03/24 05:10:50;;;;;;;88.13;34.28;;;;;;;11.75;70.75;102469.34;7377971;19;20014;-79
2022/03/24 05:13:18;;;;;;;82.82;32.90;;;;;;;11.71;70.52;102473.16;7379438;19;20010;-78
2022/03/24 05:15:45;;;;;;;80.47;32.97;;;;;;;11.71;70.70;102473.16;7378142;19;20010;-77
2022/03/24 05:18:12;;;;;;;93.00;32.33;;;;;;;11.69;70.50;102474.22;7384118;19;20003;-78
2022/03/24 05:20:39;;;;;;;84.05;31.80;;;;;;;11.64;70.73;102466.66;7377262;19;20006;-78
2022/03/24 05:23:08;;;;;;;86.70;34.05;;;;;;;11.61;70.95;102471.34;7383019;19;20010;-78
2022/03/24 05:25:35;;;;;;;76.68;30.90;;;;;;;11.60;70.84;102473.16;7374982;19;20095;-79
2022/03/24 05:28:04;;;;;;;87.63;32.85;;;;;;;11.61;71.20;102473.97;7381477;19;20034;-78
2022/03/24 05:30:31;;;;;;;83.47;33.35;;;;;;;11.61;70.77;102479.25;7379461;19;20018;-79
2022/03/24 05:32:58;;;;;;;82.50;31.75;;;;;;;11.61;70.90;102477.47;7380949;19;20014;-79
2022/03/24 05:35:25;;;;;;;88.40;32.28;;;;;;;11.61;70.79;102481.91;7379219;19;20039;-78
2022/03/24 05:37:52;;;;;;;77.28;32.05;;;;;;;11.56;71.15;102479.63;7378940;19;20023;-79
2022/03/24 05:40:22;;;;;;;82.05;31.95;;;;;;;11.56;71.25;102482.25;7374101;19;20017;-78
2022/03/24 05:42:50;;;;;;;86.50;31.08;;;;;;;11.56;71.53;102482.25;7379634;19;20417;-77
2022/03/24 05:45:17;;;;;;;85.10;31.67;;;;;;;11.58;71.83;102488.22;7377470;19;20010;-79
2022/03/24 05:47:44;;;;;;;83.93;31.58;;;;;;;11.56;71.71;102480.47;7381755;19;20025;-79
2022/03/24 05:50:12;;;;;;;85.82;33.63;;;;;;;11.54;71.36;102482.34;7384056;19;20106;-78
2022/03/24 05:52:40;;;;;;;84.22;33.28;;;;;;;11.55;71.39;102481.41;7381791;19;20489;-79
2022/03/24 05:55:09;;;;;;;83.60;32.08;;;;;;;11.53;71.46;102471.94;7383336;19;20093;-78
2022/03/24 05:57:38;;;;;;;83.45;33.22;;;;;;;11.49;71.34;102473.97;7384109;19;20014;-79
2022/03/24 06:00:10;;;;;;;83.75;33.67;;;;;;;11.46;71.51;102479.50;7387389;19;20071;-78
2022/03/24 06:02:37;;;;;;;86.75;32.75;;;;;;;11.43;71.99;102479.69;7386592;19;20014;-79
2022/03/24 06:05:08;;;;;;;86.45;34.20;;;;;;;11.44;72.22;102478.75;7387025;19;20051;-77
2022/03/24 06:07:37;;;;;;;88.50;32.75;;;;;;;11.42;71.71;102483.31;7384542;19;20015;-77
2022/03/24 06:10:05;;;;;;;87.40;31.95;;;;;;;11.44;72.16;102488.44;7382191;19;20278;-79
2022/03/24 06:12:34;;;;;;;87.80;32.22;;;;;;;11.46;72.21;102486.56;7383359;19;20033;-78
2022/03/24 06:15:01;;;;;;;83.75;33.30;;;;;;;11.48;72.27;102482.81;7385520;19;20041;-78
2022/03/24 06:17:28;;;;;;;82.03;32.78;;;;;;;11.52;71.65;102494.84;7386005;19;20090;-78
2022/03/24 06:19:56;;;;;;;89.80;33.90;;;;;;;11.53;71.86;102491.22;7387167;19;20014;-78
2022/03/24 06:22:23;;;;;;;93.65;33.05;;;;;;;11.55;72.01;102499.88;7389573;19;20455;-78
2022/03/24 06:24:50;;;;;;;85.18;32.97;;;;;;;11.57;71.52;102494.47;7382863;19;20442;-77
2022/03/24 06:27:18;;;;;;;92.00;36.05;;;;;;;11.59;71.66;102498.66;7384999;19;20011;-79
2022/03/24 06:29:45;;;;;;;84.97;33.10;;;;;;;11.65;71.53;102496.50;7384516;19;20411;-79
2022/03/24 06:32:13;;;;;;;92.32;34.08;;;;;;;11.67;71.73;102497.25;7388992;19;20011;-78
2022/03/24 06:34:40;;;;;;;85.90;33.53;;;;;;;11.71;71.11;102502.16;7386555;19;20103;-78
2022/03/24 06:37:07;;;;;;;87.35;34.50;;;;;;;11.74;71.19;102495.81;7387879;19;20018;-79
2022/03/24 06:39:35;;;;;;;87.30;33.63;;;;;;;11.77;71.41;102501.72;7382600;19;20419;-77
2022/03/24 06:42:02;;;;;;;94.85;34.92;;;;;;;11.81;70.80;102508.44;7382848;19;20506;-77
2022/03/24 06:44:30;;;;;;;83.13;32.50;;;;;;;11.78;71.29;102506.03;7385919;19;20010;-77
2022/03/24 06:46:57;;;;;;;79.22;31.02;;;;;;;11.77;70.83;102511.44;7384420;19;20017;-78
2022/03/24 06:49:24;;;;;;;77.25;29.98;;;;;;;11.77;70.55;102509.63;7388176;19;20010;-79
2022/03/24 06:51:52;;;;;;;74.45;29.77;;;;;;;11.78;70.30;102508.69;7388407;19;20015;-79
2022/03/24 06:54:19;;;;;;;72.85;30.95;;;;;;;11.80;70.64;102511.19;7382490;19;20077;-79
2022/03/24 06:56:46;;;;;;;76.68;30.38;;;;;;;11.80;70.56;102514.66;7383169;19;20459;-79
2022/03/24 06:59:14;;;;;;;75.70;30.50;;;;;;;11.79;70.43;102507.69;7385085;19;20037;-79
2022/03/24 07:01:42;;;;;;;72.07;28.02;;;;;;;11.83;70.00;102508.31;7384593;19;20016;-79
2022/03/24 07:04:09;;;;;;;61.60;27.02;;;;;;;11.82;69.08;102504.84;7383751;19;20011;-78
2022/03/24 07:06:38;;;;;;;59.88;25.23;;;;;;;11.85;69.08;102503.75;7383827;19;20028;-78
2022/03/24 07:09:04;;;;;;;50.40;22.92;;;;;;;11.88;68.18;102508.81;7382797;19;20010;-78
2022/03/24 07:11:32;;;;;;;51.38;21.20;;;;;;;11.92;67.69;102511.09;7384831;19;20082;-78
2022/03/24 07:13:59;;;;;;;41.20;18.42;;;;;;;11.95;66.26;102512.63;7383044;19;20484;-78
2022/03/24 07:16:26;;;;;;;39.30;18.48;;;;;;;11.99;65.40;102517.53;7383650;19;20332;-79
2022/03/24 07:18:55;;;;;;;34.67;16.77;;;;;;;12.16;66.79;102507.47;7384323;19;20010;-78
2022/03/24 07:21:23;;;;;;;38.15;16.42;;;;;;;12.39;63.56;102515.22;7383421;19;20010;-80
2022/03/24 07:23:50;;;;;;;35.53;17.85;;;;;;;12.60;62.74;102523.22;7388126;19;20333;-78
2022/03/24 07:26:17;;;;;;;30.17;15.82;;;;;;;12.86;62.15;102521.09;7380537;19;20338;-77
2022/03/24 07:28:44;;;;;;;36.63;15.68;;;;;;;12.99;61.38;102519.16;7384672;19;20479;-78
2022/03/24 07:31:16;;;;;;;33.55;15.32;;;;;;;13.16;61.06;102525.69;7380860;19;20640;-77
2022/03/24 07:33:45;;;;;;;33.08;16.13;;;;;;;13.33;60.07;102525.13;7386476;19;20123;-78
2022/03/24 07:36:13;;;;;;;42.08;17.88;;;;;;;13.52;59.62;102530.53;7385269;19;20238;-76
2022/03/24 07:38:40;;;;;;;44.13;20.80;;;;;;;13.80;58.79;102526.41;7384047;19;20027;-77
2022/03/24 07:41:09;;;;;;;42.05;19.17;;;;;;;14.06;57.71;102538.22;7378083;19;20023;-75
2022/03/24 07:43:36;;;;;;;41.85;19.23;;;;;;;14.22;57.02;102539.53;7385017;19;20010;-77
2022/03/24 07:46:04;;;;;;;55.38;25.13;;;;;;;14.25;59.49;102545.38;7384845;19;20094;-78
2022/03/24 07:48:32;;;;;;;71.25;27.33;;;;;;;14.27;59.18;102532.03;7384951;19;20425;-77
2022/03/24 07:51:02;;;;;;;71.45;31.67;;;;;;;14.31;59.11;102531.63;7385489;19;20523;-77
2022/03/24 07:53:41;;;;;;;77.07;32.45;;;;;;;14.41;59.15;102540.47;7386058;19;20197;-78
2022/03/24 07:56:08;;;;;;;77.18;31.13;;;;;;;14.66;58.73;102539.13;7382933;19;20089;-78
2022/03/24 07:58:36;;;;;;;88.72;36.28;;;;;;;14.90;57.78;102536.06;7386039;19;20007;-76
2022/03/24 08:01:03;;;;;;;84.03;33.47;;;;;;;15.07;57.18;102547.81;7386685;19;20024;-76
2022/03/24 08:03:31;;;;;;;86.03;34.13;;;;;;;15.20;56.92;102546.53;7384862;19;20011;-77
2022/03/24 08:05:59;;;;;;;167.15;39.97;;;;;;;15.49;56.39;102543.84;7380774;19;20011;-77
2022/03/24 08:08:26;;;;;;;85.35;32.85;;;;;;;15.53;55.69;102541.78;7380711;19;20023;-77
2022/03/24 08:10:54;;;;;;;73.93;31.25;;;;;;;15.27;55.64;102542.34;7378155;19;20472;-77
2022/03/24 08:13:28;;;;;;;69.80;28.88;;;;;;;15.13;56.94;102548.09;7381567;19;20010;-79
2022/03/24 08:15:56;;;;;;;52.13;23.65;;;;;;;14.96;57.11;102551.41;7381098;19;20029;-78
2022/03/24 08:18:23;;;;;;;48.42;24.20;;;;;;;14.86;58.01;102555.88;7380040;19;20340;-78
2022/03/24 08:20:51;;;;;;;50.05;21.38;;;;;;;14.79;57.59;102555.59;7385714;19;20272;-77
2022/03/24 08:23:21;;;;;;;48.13;22.98;;;;;;;14.79;56.77;102554.75;7383159;19;20011;-78
2022/03/24 08:25:48;;;;;;;47.08;21.63;;;;;;;14.83;56.41;102550.88;7382895;19;20015;-77
2022/03/24 08:28:15;;;;;;;41.70;21.15;;;;;;;15.12;57.53;102561.47;7385654;19;20027;-78
2022/03/24 08:30:44;;;;;;;45.63;23.30;;;;;;;15.39;56.20;102553.63;7383142;19;20346;-78
2022/03/24 08:33:12;;;;;;;42.95;20.98;;;;;;;15.43;55.40;102562.16;7383437;19;20014;-78
2022/03/24 08:35:41;;;;;;;45.38;21.42;;;;;;;15.31;55.34;102561.47;7383098;19;20025;-78
2022/03/24 08:38:12;;;;;;;45.85;20.63;;;;;;;15.20;55.94;102565.09;7380981;19;20019;-78
2022/03/24 08:40:56;;;;;;;46.47;22.80;;;;;;;15.07;55.39;102555.75;7416898;19;20865;-64
2022/03/24 08:43:23;;;;;;;52.00;24.70;;;;;;;15.00;56.37;102563.41;7421895;19;20408;-64
2022/03/24 08:45:50;;;;;;;51.05;23.55;;;;;;;14.95;55.89;102571.78;7420286;19;20024;-64
2022/03/24 08:48:18;;;;;;;43.90;22.17;;;;;;;14.91;55.91;102569.56;7419352;19;20484;-63
2022/03/24 08:50:45;;;;;;;50.35;23.38;;;;;;;14.88;55.70;102567.19;7418988;19;20022;-63
2022/03/24 08:53:12;;;;;;;46.63;22.52;;;;;;;14.97;58.52;102561.91;7424069;19;20690;-65
2022/03/24 08:55:39;;;;;;;51.03;22.60;;;;;;;15.07;59.65;102559.25;7421618;19;20082;-65
2022/03/24 08:58:08;;;;;;;47.40;22.85;;;;;;;15.14;57.56;102559.50;7418541;19;20010;-65
2022/03/24 09:00:36;;;;;;;51.67;21.92;;;;;;;15.18;54.31;102564.41;7417520;19;20035;-65
2022/03/24 09:03:03;;;;;;;52.45;23.77;;;;;;;15.19;54.35;102568.72;7420509;19;20042;-64
2022/03/24 09:05:31;;;;;;;47.33;22.55;;;;;;;15.19;54.09;102574.03;7418444;19;20093;-64
2022/03/24 09:07:58;;;;;;;47.28;22.85;;;;;;;15.16;53.47;102571.66;7418446;19;20018;-64
2022/03/24 09:10:26;;;;;;;45.95;22.50;;;;;;;15.14;54.09;102570.13;7419494;19;20448;-64
2022/03/24 09:12:53;;;;;;;45.63;21.10;;;;;;;15.14;53.64;102564.81;7417968;19;20026;-63
2022/03/24 09:15:20;;;;;;;45.88;20.67;;;;;;;15.18;53.90;102566.22;7419222;19;20010;-64
2022/03/24 09:17:48;;;;;;;48.30;22.00;;;;;;;15.20;53.44;102577.53;7422101;19;20018;-63
2022/03/24 09:20:18;;;;;;;48.85;22.00;;;;;;;15.28;53.22;102577.69;7417099;19;20010;-64
2022/03/24 09:22:47;;;;;;;50.45;22.52;;;;;;;15.33;54.14;102578.94;7423862;19;20011;-66
2022/03/24 09:25:15;;;;;;;46.22;20.83;;;;;;;15.36;52.16;102573.34;7418953;19;20006;-64
2022/03/24 09:27:44;;;;;;;46.58;21.38;;;;;;;15.39;51.99;102580.16;7417080;19;20024;-63
2022/03/24 09:30:14;;;;;;;42.80;19.13;;;;;;;15.46;51.37;102581.28;7420546;19;20010;-64
2022/03/24 09:32:52;;;;;;;40.28;20.20;;;;;;;15.47;51.59;102580.31;7417416;19;20010;-65
2022/03/24 09:35:19;;;;;;;47.78;19.35;;;;;;;15.50;51.09;102574.69;7419491;19;20513;-64
2022/03/24 09:37:47;;;;;;;41.90;20.13;;;;;;;15.54;51.50;102577.97;7421579;19;20014;-66
2022/03/24 09:40:15;;;;;;;44.90;20.95;;;;;;;15.57;50.39;102581.16;7413228;19;20010;-65
2022/03/24 09:43:12;;;;;;;41.97;18.67;;;;;;;15.60;49.07;102570.25;7417216;19;20440;-64
2022/03/24 09:45:42;;;;;;;42.78;19.95;;;;;;;15.65;50.41;102572.47;7417823;19;20018;-64
2022/03/24 09:48:12;;;;;;;40.65;18.00;;;;;;;15.69;48.70;102569.41;7416551;19;20018;-64
2022/03/24 09:50:39;;;;;;;37.10;17.88;;;;;;;15.73;47.31;102572.63;7407621;19;20440;-64
2022/03/24 09:53:07;;;;;;;40.90;19.15;;;;;;;15.75;47.55;102570.63;7391146;19;20015;-64
2022/03/24 09:55:36;;;;;;;42.33;19.35;;;;;;;15.79;47.83;102566.75;7392991;19;20014;-64
2022/03/24 09:58:06;;;;;;;39.72;19.52;;;;;;;15.85;47.38;102571.44;7387820;19;20223;-64
2022/03/24 10:00:41;;;;;;;47.72;19.13;;;;;;;15.89;46.87;102566.72;7385311;19;20021;-64
2022/03/24 10:03:14;;;;;;;43.22;19.23;;;;;;;15.96;46.54;102565.97;7386809;19;20011;-63
2022/03/24 10:06:06;;;;;;;38.35;18.58;;;;;;;16.01;46.90;102566.38;7388947;19;20022;-65
2022/03/24 10:08:36;;;;;;;40.08;18.58;;;;;;;16.05;46.56;102566.94;7382397;19;20007;-65
2022/03/24 10:11:05;;;;;;;42.75;18.95;;;;;;;16.07;46.14;102562.31;7364397;19;20023;-65
2022/03/24 10:13:45;;;;;;;36.80;18.30;;;;;;;16.11;47.17;102561.03;7380581;19;20010;-65
2022/03/24 10:16:32;;;;;;;39.47;16.75;;;;;;;16.18;43.69;102567.44;7386254;19;20537;-66
2022/03/24 10:19:03;;;;;;;33.92;16.10;;;;;;;16.23;44.25;102563.34;7389757;19;20059;-65
2022/03/24 10:21:32;;;;;;;36.00;16.33;;;;;;;16.31;44.03;102569.75;7387947;19;20146;-65
2022/03/24 10:24:13;;;;;;;34.95;15.63;;;;;;;16.39;44.67;102564.53;7388130;19;20464;-65
2022/03/24 10:27:00;;;;;;;28.05;12.05;;;;;;;16.48;41.91;102563.66;7387512;19;20014;-64
2022/03/24 10:29:35;;;;;;;21.98;9.40;;;;;;;16.53;38.59;102556.91;7388373;19;20019;-64
2022/03/24 10:32:11;;;;;;;18.42;8.38;;;;;;;16.59;36.55;102556.34;7379515;19;20017;-63
2022/03/24 10:34:41;;;;;;;12.50;6.15;;;;;;;16.66;35.71;102565.38;7386355;19;20006;-63
2022/03/24 10:37:17;;;;;;;19.92;7.55;;;;;;;16.71;35.19;102561.47;7387912;19;20035;-64
2022/03/24 10:39:56;;;;;;;14.50;6.55;;;;;;;16.72;34.90;102563.09;7384241;19;20036;-64
2022/03/24 10:42:27;;;;;;;10.77;5.45;;;;;;;16.74;33.67;102559.34;7372805;19;20026;-64
2022/03/24 10:45:06;;;;;;;8.63;3.23;;;;;;;16.81;32.93;102562.22;7387038;19;20406;-64
2022/03/24 10:47:44;;;;;;;9.85;4.45;;;;;;;16.85;32.73;102563.59;7384873;19;20007;-63
2022/03/24 10:50:28;;;;;;;12.60;5.70;;;;;;;16.90;32.90;102563.97;7386361;19;20011;-64
2022/03/24 10:53:00;;;;;;;16.23;7.28;;;;;;;16.96;33.29;102556.25;7388582;19;20011;-65
2022/03/24 10:55:44;;;;;;;19.67;7.88;;;;;;;17.03;33.77;102565.25;7386829;19;20226;-63
2022/03/24 10:58:24;;;;;;;19.88;7.78;;;;;;;17.11;33.90;102561.88;7385043;19;20017;-64
2022/03/24 11:00:58;;;;;;;19.63;8.13;;;;;;;17.21;34.02;102559.97;7384817;19;20018;-64
2022/03/24 11:03:29;;;;;;;15.27;8.20;;;;;;;17.22;32.45;102563.47;7381134;19;20011;-63
2022/03/24 11:06:08;;;;;;;17.27;7.13;;;;;;;17.21;32.79;102559.97;7386093;19;20033;-63
2022/03/24 11:08:36;;;;;;;15.68;7.35;;;;;;;17.23;33.04;102559.78;7384200;19;20011;-64
2022/03/24 11:11:11;;;;;;;16.85;7.47;;;;;;;17.24;32.61;102556.97;7384615;19;20022;-64
2022/03/24 11:13:48;;;;;;;17.77;7.20;;;;;;;17.31;32.82;102560.72;7384486;19;20007;-64
2022/03/24 11:16:18;;;;;;;17.88;7.05;;;;;;;17.37;32.05;102552.06;7386636;19;20014;-63
2022/03/24 11:18:47;;;;;;;15.82;7.35;;;;;;;17.43;31.47;102551.47;7385299;19;20014;-64